Terminal Aerodrome Forecast
Issued by NWS Northern Indiana

Home | Current Version | Previous Version | Text Only | Print | Product List | Glossary Off
Versions: 1 2 3 4 5 6 7 8 9 10 11 12 13 14 15 16 17 18

385
FTUS43 KIWX 251738
TAFFWA
TAF
KFWA 251738Z 2518/2618 27019G28KT P6SM VCSH BKN025
     FM252000 27017G24KT P6SM BKN040
     FM260000 27012KT P6SM BKN035
     FM261100 22006KT P6SM SCT120=

USA.gov is the U.S. government's official web portal to all federal, state and local government web resources and services.